Southport, United Kingdom
Current Conditions -  °F | °C
As of 8:20 AM on Thursday 29 Jan 2015 (Local Time) from EGNH Reporting Station
Broken Clouds Broken Clouds  
Wind Chill: 26°   Ceiling: 3200
Heat Index: 37°   Visibility: 6mi
Dew Point: 34°   Wind: 25mph
Humidity: 87%   Direction: 260°W
Pressure: 28.97"   Gusts: NA
Location:  53.65°N, 3.01°W
Report Text: EGNH 290820Z 26022KT 9999 SCT012 BKN032 03/01 Q0981
Loading
Personal Weather Stations






























Interactive Weather Map New forecast layout! Learn more

10-Day Weather Forecast

Advertisements
Track Severe Weather on mobile